createdAt,value
2018-10-05T00:00:12.691Z,21.7
2018-10-05T00:01:02.180Z,21.7
2018-10-05T00:01:52.786Z,21.7
2018-10-05T00:02:43.442Z,21.6
2018-10-05T00:03:32.929Z,21.7
2018-10-05T00:04:23.284Z,21.6
2018-10-05T00:05:12.754Z,21.7
2018-10-05T00:06:02.582Z,21.7
2018-10-05T00:06:53.167Z,21.7
2018-10-05T00:26:02.464Z,21.7
2018-10-05T00:26:52.217Z,21.6
2018-10-05T00:27:42.267Z,21.6
2018-10-05T00:28:32.352Z,21.6
2018-10-05T00:29:22.110Z,21.6
2018-10-05T00:30:12.402Z,21.6
2018-10-05T00:31:02.265Z,21.6
2018-10-05T00:31:52.864Z,21.6
2018-10-05T00:32:42.702Z,21.6
2018-10-05T00:33:32.694Z,21.6
2018-10-05T00:34:22.210Z,21.6
2018-10-05T00:35:12.779Z,21.6
2018-10-05T00:36:02.907Z,21.6
2018-10-05T00:36:52.930Z,21.6
2018-10-05T00:37:43.013Z,21.6
2018-10-05T00:38:33.334Z,21.6
2018-10-05T00:39:23.523Z,21.6
2018-10-05T00:40:13.477Z,21.6
2018-10-05T00:41:03.539Z,21.6
2018-10-05T00:41:53.655Z,21.6
2018-10-05T00:42:43.379Z,21.6
2018-10-05T00:43:33.423Z,21.6
2018-10-05T00:44:22.613Z,21.6
2018-10-05T00:45:14.326Z,21.6
2018-10-05T00:46:03.896Z,21.6
2018-10-05T00:46:53.684Z,21.6
2018-10-05T00:47:44.013Z,21.6
2018-10-05T00:48:33.501Z,21.6
2018-10-05T00:49:24.103Z,21.6
2018-10-05T00:50:13.616Z,21.6
2018-10-05T00:51:03.984Z,21.6
2018-10-05T00:51:54.032Z,21.6
2018-10-05T00:52:44.668Z,21.6
2018-10-05T00:53:35.382Z,21.6
2018-10-05T00:54:23.671Z,21.6
2018-10-05T00:55:14.338Z,21.6
2018-10-05T00:56:04.612Z,21.6
2018-10-05T00:56:54.438Z,21.6
2018-10-05T00:57:44.544Z,21.6
2018-10-05T00:58:34.553Z,21.6
2018-10-05T00:59:24.878Z,21.6
2018-10-05T01:00:14.884Z,21.6
2018-10-05T01:01:04.195Z,21.6
2018-10-05T01:01:55.080Z,21.6
2018-10-05T01:02:45.195Z,21.6
2018-10-05T01:03:35.180Z,21.6
2018-10-05T01:04:24.975Z,21.6
2018-10-05T01:05:29.642Z,21.6
2018-10-05T01:06:05.365Z,21.6
2018-10-05T01:06:54.851Z,21.6
2018-10-05T01:07:45.486Z,21.6
2018-10-05T01:08:35.490Z,21.6
2018-10-05T01:09:25.619Z,21.6
2018-10-05T01:10:15.115Z,21.6
2018-10-05T01:11:05.736Z,21.6
2018-10-05T01:11:55.513Z,21.6
2018-10-05T01:12:45.577Z,21.6
2018-10-05T01:13:35.872Z,21.6
2018-10-05T01:14:25.205Z,21.6
2018-10-05T01:15:15.497Z,21.6
2018-10-05T01:16:05.830Z,21.6
2018-10-05T01:17:46.231Z,21.6
2018-10-05T01:18:36.275Z,21.6
2018-10-05T01:19:26.077Z,21.6
2018-10-05T01:20:15.568Z,21.6
2018-10-05T01:21:06.677Z,21.6
2018-10-05T01:21:56.521Z,21.6
2018-10-05T01:22:46.062Z,21.6
2018-10-05T01:23:36.675Z,21.6
2018-10-05T01:24:25.598Z,21.6
2018-10-05T01:25:16.734Z,21.6
2018-10-05T01:26:07.087Z,21.6
2018-10-05T01:26:56.612Z,21.6
2018-10-05T01:27:46.422Z,21.6
2018-10-05T01:28:37.061Z,21.6
2018-10-05T01:29:26.551Z,21.6
2018-10-05T01:30:16.568Z,21.6
2018-10-05T01:31:07.256Z,21.6
2018-10-05T01:31:56.769Z,21.6
2018-10-05T01:32:47.346Z,21.6
2018-10-05T01:33:37.455Z,21.6
2018-10-05T01:34:27.176Z,21.6
2018-10-05T01:35:17.229Z,21.6
2018-10-05T01:36:07.310Z,21.6
2018-10-05T01:36:57.648Z,21.6
2018-10-05T01:37:47.411Z,21.6
2018-10-05T01:38:37.860Z,21.6
2018-10-05T01:39:27.831Z,21.6
2018-10-05T01:40:17.908Z,21.6
2018-10-05T01:41:07.668Z,21.6
2018-10-05T01:41:57.673Z,21.6
2018-10-05T01:42:47.796Z,21.6
2018-10-05T01:43:38.153Z,21.6
2018-10-05T01:44:28.243Z,21.6
2018-10-05T01:45:18.317Z,21.6
2018-10-05T01:46:07.776Z,21.6
2018-10-05T01:46:58.343Z,21.6
2018-10-05T01:47:47.037Z,21.6
2018-10-05T01:48:37.940Z,21.6
2018-10-05T01:49:28.541Z,21.6
2018-10-05T01:50:18.665Z,21.6
2018-10-05T01:51:08.142Z,21.6
2018-10-05T01:51:58.790Z,21.6
2018-10-05T01:52:48.551Z,21.6
2018-10-05T01:53:38.610Z,21.6
2018-10-05T01:54:28.962Z,21.6
2018-10-05T01:55:18.494Z,21.6
2018-10-05T01:56:07.918Z,21.6
2018-10-05T01:56:59.104Z,21.6
2018-10-05T01:57:49.377Z,21.6
2018-10-05T01:58:38.691Z,21.6
2018-10-05T01:59:29.517Z,21.6
2018-10-05T02:00:19.097Z,21.6
2018-10-05T02:01:08.912Z,21.6
2018-10-05T02:01:59.817Z,21.6
2018-10-05T02:02:49.286Z,21.6
2018-10-05T02:03:39.619Z,21.6
2018-10-05T02:04:29.154Z,21.6
2018-10-05T02:05:19.179Z,21.6
2018-10-05T02:06:09.511Z,21.6
2018-10-05T02:06:59.280Z,21.6
2018-10-05T02:07:49.892Z,21.6
2018-10-05T02:08:39.434Z,21.6
2018-10-05T02:09:30.022Z,21.6
2018-10-05T02:10:19.583Z,21.6
2018-10-05T02:11:09.611Z,21.5
2018-10-05T02:12:00.227Z,21.6
2018-10-05T02:12:49.484Z,21.6
2018-10-05T02:13:40.336Z,21.6
2018-10-05T02:14:30.397Z,21.5
2018-10-05T02:15:20.211Z,21.5
2018-10-05T02:16:10.254Z,21.5
2018-10-05T02:17:00.648Z,21.5
2018-10-05T02:18:05.308Z,21.5
2018-10-05T02:18:40.738Z,21.5
2018-10-05T02:19:30.805Z,21.5
2018-10-05T02:20:20.614Z,21.5
2018-10-05T02:21:10.089Z,21.5
2018-10-05T02:22:00.434Z,21.5
2018-10-05T02:22:51.026Z,21.6
2018-10-05T02:23:40.829Z,21.5
2018-10-05T02:24:30.916Z,21.5
2018-10-05T02:25:20.896Z,21.6
2018-10-05T02:26:11.460Z,21.5
2018-10-05T02:27:00.824Z,21.5
2018-10-05T02:27:51.373Z,21.5
2018-10-05T02:28:41.186Z,21.5
2018-10-05T02:29:30.988Z,21.5
2018-10-05T02:30:21.329Z,21.5
2018-10-05T02:31:11.390Z,21.5
2018-10-05T02:32:01.455Z,21.5
2018-10-05T02:32:52.213Z,21.5
2018-10-05T02:33:41.837Z,21.5
2018-10-05T02:34:31.607Z,21.5
2018-10-05T02:35:36.635Z,21.5
2018-10-05T02:36:12.059Z,21.5
2018-10-05T02:37:16.450Z,21.5
2018-10-05T02:37:52.164Z,21.5
2018-10-05T02:38:41.863Z,21.5
2018-10-05T02:39:32.204Z,21.5
2018-10-05T02:40:21.807Z,21.5
2018-10-05T02:41:26.517Z,21.5
2018-10-05T02:42:02.457Z,21.5
2018-10-05T02:42:51.885Z,21.5
2018-10-05T02:43:42.564Z,21.5
2018-10-05T02:44:32.382Z,21.5
2018-10-05T02:45:22.700Z,21.5
2018-10-05T02:46:12.775Z,21.5
2018-10-05T02:47:02.227Z,21.5
2018-10-05T02:47:52.882Z,21.5
2018-10-05T02:48:43.215Z,21.5
2018-10-05T02:49:33.008Z,21.5
2018-10-05T02:50:23.067Z,21.5
2018-10-05T02:51:13.429Z,21.5
2018-10-05T02:52:03.219Z,21.5
2018-10-05T02:52:52.956Z,21.5
2018-10-05T02:53:43.257Z,21.5
2018-10-05T02:54:32.796Z,21.5
2018-10-05T02:55:22.592Z,21.5
2018-10-05T02:56:13.512Z,21.5
2018-10-05T02:57:03.001Z,21.5
2018-10-05T02:57:53.339Z,21.5
2018-10-05T02:58:43.192Z,21.5
2018-10-05T02:59:33.731Z,21.5
2018-10-05T03:00:23.501Z,21.5
2018-10-05T03:01:14.066Z,21.5
2018-10-05T03:02:03.670Z,21.5
2018-10-05T03:02:53.241Z,21.5
2018-10-05T03:03:44.081Z,21.5
2018-10-05T03:04:33.818Z,21.5
2018-10-05T03:05:24.218Z,21.5
2018-10-05T03:06:13.961Z,21.5
2018-10-05T03:07:04.013Z,21.5
2018-10-05T03:07:54.353Z,21.5
2018-10-05T03:08:44.736Z,21.4
2018-10-05T03:09:34.176Z,21.5
2018-10-05T03:10:24.280Z,21.5
2018-10-05T03:11:13.745Z,21.4
2018-10-05T03:12:04.980Z,21.4
2018-10-05T03:12:54.755Z,21.5
2018-10-05T03:13:44.769Z,21.4
2018-10-05T03:14:34.558Z,21.5
2018-10-05T03:15:24.650Z,21.4
2018-10-05T03:16:14.672Z,21.5
2018-10-05T03:17:04.745Z,21.4
2018-10-05T03:17:54.274Z,21.5
2018-10-05T03:18:45.162Z,21.5
2018-10-05T03:19:34.412Z,21.5
2018-10-05T03:20:25.001Z,21.4
2018-10-05T03:21:14.780Z,21.4
2018-10-05T03:22:05.440Z,21.4
2018-10-05T03:22:55.457Z,21.4
2018-10-05T03:23:45.224Z,21.4
2018-10-05T03:24:35.313Z,21.4
2018-10-05T03:25:26.487Z,21.5
2018-10-05T03:26:15.879Z,21.4
2018-10-05T03:27:05.221Z,21.5
2018-10-05T03:27:55.830Z,21.4
2018-10-05T03:28:46.169Z,21.4
2018-10-05T03:29:35.983Z,21.4
2018-10-05T03:30:26.064Z,21.4
2018-10-05T03:31:15.547Z,21.4
2018-10-05T03:32:05.898Z,21.4
2018-10-05T03:32:56.360Z,21.4
2018-10-05T03:33:46.259Z,21.4
2018-10-05T03:34:36.033Z,21.4
2018-10-05T03:35:26.378Z,21.4
2018-10-05T03:36:16.409Z,21.4
2018-10-05T03:37:06.452Z,21.4
2018-10-05T03:37:56.576Z,21.4
2018-10-05T03:38:46.640Z,21.4
2018-10-05T03:39:36.978Z,21.4
2018-10-05T03:40:26.731Z,21.4
2018-10-05T03:41:16.514Z,21.4
2018-10-05T03:42:06.595Z,21.4
2018-10-05T03:42:56.636Z,21.4
2018-10-05T03:43:46.993Z,21.4
2018-10-05T03:44:37.025Z,21.4
2018-10-05T03:45:27.130Z,21.4
2018-10-05T03:46:17.220Z,21.4
2018-10-05T03:47:06.664Z,21.4
2018-10-05T03:47:56.958Z,21.4
2018-10-05T03:48:46.548Z,21.4
2018-10-05T03:49:36.582Z,21.4
2018-10-05T03:50:26.940Z,21.4
2018-10-05T03:51:17.542Z,21.4
2018-10-05T03:52:07.328Z,21.4
2018-10-05T03:52:57.415Z,21.4
2018-10-05T03:53:47.170Z,21.4
2018-10-05T03:54:37.792Z,21.4
2018-10-05T03:55:27.045Z,21.4
2018-10-05T03:56:17.377Z,21.4
2018-10-05T03:57:07.732Z,21.4
2018-10-05T03:57:57.828Z,21.4
2018-10-05T03:58:47.815Z,21.4
2018-10-05T03:59:37.911Z,21.4
2018-10-05T04:00:27.974Z,21.4
2018-10-05T04:01:17.987Z,21.4
2018-10-05T04:02:07.780Z,21.4
2018-10-05T04:02:57.581Z,21.4
2018-10-05T04:03:48.141Z,21.4
2018-10-05T04:04:37.794Z,21.4
2018-10-05T04:05:28.602Z,21.4
2018-10-05T04:06:18.642Z,21.4
2018-10-05T04:07:08.188Z,21.4
2018-10-05T04:07:57.903Z,21.4
2018-10-05T04:08:48.589Z,21.4
2018-10-05T04:09:38.654Z,21.4
2018-10-05T04:10:28.126Z,21.4
2018-10-05T04:11:20.599Z,21.4
2018-10-05T04:12:08.548Z,21.4
2018-10-05T04:12:58.332Z,21.4
2018-10-05T04:13:48.652Z,21.4
2018-10-05T04:14:38.988Z,21.4
2018-10-05T04:15:28.786Z,21.4
2018-10-05T04:16:19.403Z,21.4
2018-10-05T04:17:09.394Z,21.4
2018-10-05T04:17:59.224Z,21.4
2018-10-05T04:18:49.306Z,21.4
2018-10-05T04:19:39.354Z,21.4
2018-10-05T04:20:29.148Z,21.4
2018-10-05T04:21:19.544Z,21.4
2018-10-05T04:22:09.576Z,21.4
2018-10-05T04:22:59.636Z,21.4
2018-10-05T04:23:49.399Z,21.4
2018-10-05T04:24:39.253Z,21.4
2018-10-05T04:25:29.506Z,21.4
2018-10-05T04:26:21.413Z,21.4
2018-10-05T04:27:10.366Z,21.4
2018-10-05T04:27:59.802Z,21.4
2018-10-05T04:28:50.018Z,21.4
2018-10-05T04:29:39.835Z,21.4
2018-10-05T04:30:30.163Z,21.4
2018-10-05T04:32:10.087Z,21.4
2018-10-05T04:33:00.138Z,21.4
2018-10-05T04:33:49.923Z,21.4
2018-10-05T04:34:39.388Z,21.4
2018-10-05T04:35:30.780Z,21.4
2018-10-05T04:36:20.089Z,21.4
2018-10-05T04:54:33.641Z,21.3
2018-10-05T04:55:24.485Z,21.4
2018-10-05T04:56:14.555Z,21.4
2018-10-05T04:57:04.443Z,21.4
2018-10-05T04:57:54.154Z,21.4
2018-10-05T04:58:44.192Z,21.4
2018-10-05T04:59:35.055Z,21.4
2018-10-05T05:00:24.829Z,21.4
2018-10-05T05:01:14.394Z,21.4
2018-10-05T05:02:04.179Z,21.4
2018-10-05T05:02:54.750Z,21.4
2018-10-05T05:03:44.616Z,21.4
2018-10-05T05:04:35.134Z,21.4
2018-10-05T05:05:24.171Z,21.4
2018-10-05T05:06:14.404Z,21.4
2018-10-05T05:07:05.068Z,21.4
2018-10-05T05:07:55.106Z,21.4
2018-10-05T05:08:44.674Z,21.4
2018-10-05T05:09:34.983Z,21.4
2018-10-05T05:10:25.136Z,21.4
2018-10-05T05:11:15.616Z,21.4
2018-10-05T05:12:05.619Z,21.3
2018-10-05T05:12:55.267Z,21.4
2018-10-05T05:13:44.194Z,21.4
2018-10-05T05:14:35.113Z,21.3
2018-10-05T05:15:25.444Z,21.4
2018-10-05T05:16:14.978Z,21.4
2018-10-05T05:17:04.997Z,21.3
2018-10-05T05:17:55.675Z,21.4
2018-10-05T05:18:45.468Z,21.4
2018-10-05T05:19:36.144Z,21.4
2018-10-05T05:20:25.796Z,21.3
2018-10-05T05:21:15.596Z,21.3
2018-10-05T05:22:05.403Z,21.3
2018-10-05T05:22:55.438Z,21.3
2018-10-05T05:23:46.083Z,21.3
2018-10-05T05:24:35.835Z,21.4
2018-10-05T05:25:26.091Z,21.3
2018-10-05T05:26:16.434Z,21.4
2018-10-05T05:27:06.778Z,21.3
2018-10-05T05:27:56.845Z,21.4
2018-10-05T05:28:46.931Z,21.4
2018-10-05T05:29:36.177Z,21.4
2018-10-05T05:30:26.978Z,21.3
2018-10-05T05:31:16.259Z,21.3
2018-10-05T05:32:06.883Z,21.3
2018-10-05T05:32:57.239Z,21.4
2018-10-05T05:33:47.776Z,21.3
2018-10-05T05:34:36.497Z,21.3
2018-10-05T05:35:27.371Z,21.3
2018-10-05T05:36:17.451Z,21.3
2018-10-05T05:37:07.215Z,21.3
2018-10-05T05:37:57.315Z,21.3
2018-10-05T05:38:47.308Z,21.3
2018-10-05T05:39:37.428Z,21.3
2018-10-05T05:40:28.254Z,21.3
2018-10-05T05:41:17.533Z,21.3
2018-10-05T05:42:07.853Z,21.3
2018-10-05T05:42:57.370Z,21.3
2018-10-05T05:43:48.053Z,21.3
2018-10-05T05:44:38.068Z,21.3
2018-10-05T05:45:27.860Z,21.3
2018-10-05T05:46:18.166Z,21.3
2018-10-05T05:47:08.235Z,21.3
2018-10-05T05:47:58.330Z,21.3
2018-10-05T05:48:48.615Z,21.3
2018-10-05T05:49:37.845Z,21.3
2018-10-05T05:50:28.202Z,21.3
2018-10-05T05:51:18.243Z,21.3
2018-10-05T05:52:08.664Z,21.3
2018-10-05T05:52:58.427Z,21.3
2018-10-05T05:53:49.177Z,21.3
2018-10-05T05:54:39.351Z,21.3
2018-10-05T05:55:28.607Z,21.3
2018-10-05T05:56:18.917Z,21.3
2018-10-05T05:57:08.415Z,21.3
2018-10-05T05:57:58.522Z,21.3
2018-10-05T05:58:49.394Z,21.3
2018-10-05T05:59:38.612Z,21.3
2018-10-05T06:00:29.262Z,21.3
2018-10-05T06:01:18.648Z,21.3
2018-10-05T06:02:09.340Z,21.3
2018-10-05T06:02:59.257Z,21.3
2018-10-05T06:03:49.497Z,21.3
2018-10-05T06:04:39.264Z,21.3
2018-10-05T06:05:29.329Z,21.3
2018-10-05T06:06:19.692Z,21.3
2018-10-05T06:07:09.506Z,21.3
2018-10-05T06:08:00.002Z,21.3
2018-10-05T06:08:49.609Z,21.3
2018-10-05T06:09:39.676Z,21.3
2018-10-05T06:10:29.943Z,21.3
2018-10-05T06:11:19.502Z,21.3
2018-10-05T06:12:09.545Z,21.3
2018-10-05T06:12:59.591Z,21.3
2018-10-05T06:13:49.702Z,21.3
2018-10-05T06:14:40.286Z,21.3
2018-10-05T06:15:30.670Z,21.3
2018-10-05T06:16:20.465Z,21.3
2018-10-05T06:17:09.869Z,21.3
2018-10-05T06:18:00.538Z,21.3
2018-10-05T06:18:50.603Z,21.3
2018-10-05T06:19:40.696Z,21.3
2018-10-05T06:20:30.796Z,21.3
2018-10-05T06:21:20.240Z,21.3
2018-10-05T06:22:10.955Z,21.3
2018-10-05T06:23:00.361Z,21.3
2018-10-05T06:23:50.658Z,21.3
2018-10-05T06:24:40.989Z,21.3
2018-10-05T06:25:31.171Z,21.3
2018-10-05T06:26:20.842Z,21.3
2018-10-05T06:27:11.651Z,21.3
2018-10-05T06:28:01.288Z,21.3
2018-10-05T06:28:51.311Z,21.3
2018-10-05T06:29:41.370Z,21.3
2018-10-05T06:30:31.572Z,21.3
2018-10-05T06:31:22.041Z,21.3
2018-10-05T06:32:11.080Z,21.3
2018-10-05T06:33:01.565Z,21.3
2018-10-05T06:33:51.421Z,21.3
2018-10-05T06:34:41.983Z,21.3
2018-10-05T06:35:31.245Z,21.3
2018-10-05T06:36:21.306Z,21.3
2018-10-05T06:37:12.498Z,21.3
2018-10-05T06:38:01.993Z,21.3
2018-10-05T06:38:51.617Z,21.3
2018-10-05T06:39:41.847Z,21.3
2018-10-05T06:40:32.009Z,21.3
2018-10-05T06:41:21.962Z,21.3
2018-10-05T06:42:14.068Z,21.3
2018-10-05T06:43:02.080Z,21.3
2018-10-05T06:43:51.847Z,21.3
2018-10-05T06:44:41.638Z,21.3
2018-10-05T06:45:32.552Z,21.3
2018-10-05T06:46:22.317Z,21.3
2018-10-05T06:47:12.125Z,21.3
2018-10-05T06:48:02.709Z,21.3
2018-10-05T06:48:52.224Z,21.3
2018-10-05T06:49:42.570Z,21.3
2018-10-05T06:50:32.631Z,21.3
2018-10-05T06:51:22.958Z,21.3
2018-10-05T06:52:12.474Z,21.3
2018-10-05T06:53:02.839Z,21.3
2018-10-05T06:53:52.601Z,21.3
2018-10-05T06:54:43.016Z,21.3
2018-10-05T06:55:32.711Z,21.3
2018-10-05T06:56:23.344Z,21.3
2018-10-05T06:57:13.385Z,21.3
2018-10-05T06:58:03.738Z,21.3
2018-10-05T06:58:52.979Z,21.3
2018-10-05T06:59:43.817Z,21.3
2018-10-05T07:00:33.049Z,21.3
2018-10-05T07:01:23.108Z,21.3
2018-10-05T07:02:13.802Z,21.3
2018-10-05T07:03:02.969Z,21.3
2018-10-05T07:03:53.592Z,21.3
2018-10-05T07:04:43.413Z,21.3
2018-10-05T07:05:33.738Z,21.3
2018-10-05T07:06:23.778Z,21.3
2018-10-05T07:07:13.866Z,21.3
2018-10-05T07:08:04.856Z,21.3
2018-10-05T07:08:53.680Z,21.3
2018-10-05T07:09:43.763Z,21.3
2018-10-05T07:10:33.525Z,21.3
2018-10-05T07:11:23.956Z,21.3
2018-10-05T07:12:13.621Z,21.3
2018-10-05T07:13:04.547Z,21.3
2018-10-05T07:13:54.369Z,21.2
2018-10-05T07:14:44.433Z,21.3
2018-10-05T07:15:34.415Z,21.3
2018-10-05T07:16:24.602Z,21.3
2018-10-05T07:17:15.107Z,21.3
2018-10-05T07:18:05.127Z,21.3
2018-10-05T07:18:54.755Z,21.3
2018-10-05T07:19:44.774Z,21.3
2018-10-05T07:20:34.844Z,21.3
2018-10-05T07:21:26.193Z,21.3
2018-10-05T07:22:14.720Z,21.3
2018-10-05T07:23:04.725Z,21.3
2018-10-05T07:23:55.072Z,21.3
2018-10-05T07:24:44.882Z,21.3
2018-10-05T07:25:34.627Z,21.3
2018-10-05T07:26:25.532Z,21.3
2018-10-05T07:27:15.645Z,21.3
2018-10-05T07:28:05.706Z,21.2
2018-10-05T07:28:55.741Z,21.2
2018-10-05T07:29:45.771Z,21.3
2018-10-05T07:30:35.877Z,21.2
2018-10-05T07:31:25.319Z,21.3
2018-10-05T07:32:15.437Z,21.3
2018-10-05T07:33:05.736Z,21.3
2018-10-05T07:33:55.836Z,21.3
2018-10-05T07:34:45.985Z,21.2
2018-10-05T07:35:35.948Z,21.2
2018-10-05T07:36:26.081Z,21.2
2018-10-05T07:37:16.554Z,21.2
2018-10-05T07:38:04.981Z,21.2
2018-10-05T07:38:56.177Z,21.2
2018-10-05T07:39:45.976Z,21.2
2018-10-05T07:40:36.587Z,21.2
2018-10-05T07:41:26.361Z,21.2
2018-10-05T07:42:16.421Z,21.2
2018-10-05T07:43:07.731Z,21.2
2018-10-05T07:43:56.747Z,21.2
2018-10-05T07:44:46.883Z,21.2
2018-10-05T07:45:36.632Z,21.2
2018-10-05T07:46:27.030Z,21.2
2018-10-05T07:47:16.797Z,21.2
2018-10-05T07:48:07.177Z,21.2
2018-10-05T07:48:57.429Z,21.2
2018-10-05T07:49:47.242Z,21.2
2018-10-05T07:50:36.768Z,21.2
2018-10-05T07:51:27.373Z,21.2
2018-10-05T07:52:17.168Z,21.2
2018-10-05T07:53:06.983Z,21.2
2018-10-05T07:53:57.838Z,21.2
2018-10-05T07:54:46.807Z,21.2
2018-10-05T07:55:37.462Z,21.2
2018-10-05T07:56:27.193Z,21.2
2018-10-05T07:57:17.410Z,21.2
2018-10-05T07:58:07.059Z,21.2
2018-10-05T07:58:57.658Z,21.2
2018-10-05T07:59:47.454Z,21.2
2018-10-05T08:00:38.050Z,21.2
2018-10-05T08:01:27.864Z,21.2
2018-10-05T08:02:18.177Z,21.2
2018-10-05T08:03:07.415Z,21.2
2018-10-05T08:03:58.319Z,21.2
2018-10-05T08:04:48.342Z,21.2
2018-10-05T08:05:37.662Z,21.2
2018-10-05T08:06:28.202Z,21.2
2018-10-05T08:07:18.585Z,21.2
2018-10-05T08:08:08.604Z,21.2
2018-10-05T08:08:58.419Z,21.2
2018-10-05T08:09:48.637Z,21.2
2018-10-05T08:10:38.309Z,21.2
2018-10-05T08:11:28.394Z,21.2
2018-10-05T08:12:18.204Z,21.2
2018-10-05T08:13:08.510Z,21.2
2018-10-05T08:13:58.277Z,21.2
2018-10-05T08:14:48.639Z,21.2
2018-10-05T08:15:38.416Z,21.2
2018-10-05T08:16:28.249Z,21.2
2018-10-05T08:17:19.033Z,21.2
2018-10-05T08:18:08.038Z,21.2
2018-10-05T08:18:58.989Z,21.2
2018-10-05T08:19:49.526Z,21.2
2018-10-05T08:20:39.271Z,21.2
2018-10-05T08:21:29.437Z,21.2
2018-10-05T08:22:18.925Z,21.2
2018-10-05T08:23:09.461Z,21.2
2018-10-05T08:23:59.509Z,21.2
2018-10-05T08:24:49.870Z,21.2
2018-10-05T08:25:39.615Z,21.2
2018-10-05T08:26:28.205Z,21.2
2018-10-05T08:27:19.393Z,21.2
2018-10-05T08:28:09.153Z,21.2
2018-10-05T08:28:59.106Z,21.2
2018-10-05T08:29:49.992Z,21.2
2018-10-05T08:30:39.523Z,21.2
2018-10-05T08:31:29.580Z,21.2
2018-10-05T08:32:19.408Z,21.2
2018-10-05T08:33:10.740Z,21.2
2018-10-05T08:34:01.434Z,21.2
2018-10-05T08:35:40.370Z,21.2
2018-10-05T08:39:51.280Z,21.2
2018-10-05T08:40:41.018Z,21.2
2018-10-05T08:43:10.955Z,21.2
2018-10-05T08:44:00.775Z,21.2
2018-10-05T08:44:51.083Z,21.2
2018-10-05T08:45:40.921Z,21.2
2018-10-05T09:33:42.210Z,21.1
2018-10-05T09:43:42.543Z,21.1
2018-10-05T09:47:03.226Z,21.1
2018-10-05T09:47:52.489Z,21.1
2018-10-05T09:50:22.673Z,21.1
2018-10-05T09:51:13.750Z,21.1
2018-10-05T09:52:53.398Z,21.1
2018-10-05T09:53:43.220Z,21.1
2018-10-05T09:55:22.491Z,21.1
2018-10-05T09:57:53.845Z,21.1
2018-10-05T09:58:43.607Z,21.1
2018-10-05T09:59:33.661Z,21.1
2018-10-05T10:00:22.928Z,21.1
2018-10-05T10:02:03.558Z,21.1
2018-10-05T10:02:54.168Z,21.1
2018-10-05T10:03:43.953Z,21.1
2018-10-05T10:04:34.032Z,21.1
2018-10-05T10:06:14.188Z,21.1
2018-10-05T10:07:03.630Z,21.1
2018-10-05T10:07:54.865Z,21.1
2018-10-05T10:08:44.063Z,21.1
2018-10-05T10:09:34.119Z,21.1
2018-10-05T10:10:23.896Z,21.1
2018-10-05T10:11:13.702Z,21.1
2018-10-05T10:12:04.225Z,21.1
2018-10-05T10:12:54.080Z,21.1
2018-10-05T10:13:45.048Z,21.1
2018-10-05T10:14:35.209Z,21.1
2018-10-05T10:15:25.360Z,21.1
2018-10-05T10:16:14.555Z,21.1
2018-10-05T10:17:04.654Z,21.1
2018-10-05T10:17:55.221Z,21.1
2018-10-05T10:18:45.302Z,21.1
2018-10-05T10:19:35.019Z,21.1
2018-10-05T10:20:25.374Z,21.1
2018-10-05T10:21:15.307Z,21.1
2018-10-05T10:22:04.957Z,21.1
2018-10-05T10:22:55.312Z,21.1
2018-10-05T10:23:45.084Z,21.1
2018-10-05T10:24:35.672Z,21.1
2018-10-05T10:25:25.502Z,21.1
2018-10-05T10:26:16.114Z,21.1
2018-10-05T10:27:05.864Z,21.1
2018-10-05T10:27:56.261Z,21.1
2018-10-05T10:28:47.020Z,21.1
2018-10-05T10:29:37.025Z,21.1
2018-10-05T10:30:25.651Z,21.1
2018-10-05T10:31:16.266Z,21.1
2018-10-05T10:32:06.226Z,21.1
2018-10-05T10:32:56.041Z,21.1
2018-10-05T10:33:47.433Z,21.1
2018-10-05T10:34:37.314Z,21.1
2018-10-05T10:35:26.803Z,21.1
2018-10-05T10:36:16.861Z,21.1
2018-10-05T10:37:06.956Z,21.1
2018-10-05T10:37:56.116Z,21.1
2018-10-05T10:38:46.501Z,21.1
2018-10-05T10:39:37.353Z,21.1
2018-10-05T10:40:26.896Z,21.1
2018-10-05T10:41:17.215Z,21.1
2018-10-05T10:42:07.008Z,21.1
2018-10-05T10:42:56.491Z,21.1
2018-10-05T10:43:47.406Z,21.1
2018-10-05T10:44:37.189Z,21.1
2018-10-05T10:45:27.791Z,21.1
2018-10-05T10:46:17.578Z,21.1
2018-10-05T10:47:06.548Z,21.1
2018-10-05T10:47:57.466Z,21.1
2018-10-05T10:48:46.630Z,21.1
2018-10-05T10:49:37.266Z,21.1
2018-10-05T10:50:27.612Z,21.1
2018-10-05T10:51:16.918Z,21
2018-10-05T10:52:07.798Z,21.1
2018-10-05T10:52:57.467Z,21.1
2018-10-05T10:53:47.852Z,21.1
2018-10-05T10:54:37.915Z,21.1
2018-10-05T10:55:27.131Z,21.1
2018-10-05T10:56:19.447Z,21.1
2018-10-05T10:57:08.145Z,21.1
2018-10-05T10:57:58.443Z,21
2018-10-05T10:58:48.228Z,21.1
2018-10-05T10:59:38.011Z,21
2018-10-05T11:00:28.093Z,21.1
2018-10-05T11:01:18.650Z,21.1
2018-10-05T11:02:08.755Z,21
2018-10-05T11:02:58.547Z,21
2018-10-05T11:03:48.626Z,21.1
2018-10-05T11:04:40.057Z,21
2018-10-05T11:05:29.029Z,21
2018-10-05T11:06:18.209Z,21
2018-10-05T11:07:08.838Z,21
2018-10-05T11:07:59.004Z,21
2018-10-05T11:08:49.060Z,21
2018-10-05T11:09:39.069Z,21
2018-10-05T11:10:28.606Z,21
2018-10-05T11:11:20.448Z,21
2018-10-05T11:12:09.556Z,21
2018-10-05T11:12:58.697Z,21.1
2018-10-05T11:13:49.054Z,21
2018-10-05T11:14:39.133Z,21
2018-10-05T11:15:29.723Z,21
2018-10-05T11:16:19.789Z,21
2018-10-05T11:17:10.553Z,21
2018-10-05T11:17:59.626Z,21
2018-10-05T11:18:49.676Z,21
2018-10-05T11:19:40.056Z,21
2018-10-05T11:20:30.111Z,21
2018-10-05T11:21:19.912Z,21
2018-10-05T11:22:10.225Z,21
2018-10-05T11:22:59.975Z,21
2018-10-05T11:23:50.377Z,21
2018-10-05T11:24:40.433Z,21
2018-10-05T11:25:30.180Z,21
2018-10-05T11:26:20.536Z,21
2018-10-05T11:27:09.748Z,21
2018-10-05T11:28:00.670Z,21
2018-10-05T11:28:50.152Z,21
2018-10-05T11:29:41.101Z,21
2018-10-05T11:30:30.283Z,21
2018-10-05T11:31:20.653Z,21
2018-10-05T11:32:10.961Z,21
2018-10-05T11:33:00.771Z,21
2018-10-05T11:33:50.795Z,21
2018-10-05T11:34:40.862Z,21
2018-10-05T11:35:30.640Z,21
2018-10-05T11:36:21.053Z,21
2018-10-05T11:37:11.100Z,21
2018-10-05T11:38:00.903Z,21
2018-10-05T11:38:51.495Z,21
2018-10-05T11:39:41.073Z,21
2018-10-05T11:40:31.351Z,21
2018-10-05T11:41:20.607Z,21
2018-10-05T11:42:11.215Z,21
2018-10-05T11:43:01.602Z,21
2018-10-05T11:43:51.142Z,21
2018-10-05T11:44:41.404Z,21
2018-10-05T11:45:31.481Z,21
2018-10-05T11:46:22.158Z,21
2018-10-05T11:47:11.022Z,21
2018-10-05T11:48:01.626Z,21
2018-10-05T11:48:51.732Z,21
2018-10-05T11:49:41.970Z,21
2018-10-05T11:50:31.061Z,21
2018-10-05T11:51:22.011Z,21
2018-10-05T11:52:12.049Z,21
2018-10-05T11:53:01.510Z,21
2018-10-05T11:53:52.167Z,21
2018-10-05T11:54:42.265Z,21
2018-10-05T11:55:32.310Z,21
2018-10-05T11:56:22.848Z,21
2018-10-05T11:57:12.144Z,21
2018-10-05T11:58:02.408Z,21
2018-10-05T11:58:52.722Z,21
2018-10-05T11:59:42.852Z,21
2018-10-05T12:00:32.378Z,20.9
2018-10-05T12:01:22.944Z,21
2018-10-05T12:02:13.257Z,20.9
2018-10-05T12:03:03.048Z,21
2018-10-05T12:03:53.584Z,21
2018-10-05T12:04:43.540Z,21
2018-10-05T12:05:33.059Z,21
2018-10-05T12:06:23.400Z,21
2018-10-05T12:07:14.125Z,20.9
2018-10-05T12:08:03.786Z,20.9
2018-10-05T12:08:54.059Z,21
2018-10-05T12:09:43.878Z,20.9
2018-10-05T12:10:33.980Z,21
2018-10-05T12:11:23.998Z,20.9
2018-10-05T12:12:13.558Z,21
2018-10-05T12:13:03.828Z,20.9
2018-10-05T12:13:55.580Z,21
2018-10-05T12:14:44.176Z,20.9
2018-10-05T12:15:34.321Z,21
2018-10-05T12:16:24.364Z,21
2018-10-05T12:17:14.416Z,20.9
2018-10-05T12:18:03.960Z,21
2018-10-05T12:18:54.172Z,20.9
2018-10-05T12:19:44.095Z,20.9
2018-10-05T12:20:34.055Z,21
2018-10-05T12:21:24.632Z,20.9
2018-10-05T12:22:14.225Z,21
2018-10-05T12:23:04.795Z,21
2018-10-05T12:23:54.037Z,20.9
2018-10-05T12:24:43.865Z,20.9
2018-10-05T12:25:34.472Z,20.9
2018-10-05T12:26:24.625Z,20.9
2018-10-05T12:27:14.651Z,20.9
2018-10-05T12:28:04.384Z,20.9
2018-10-05T12:28:54.771Z,21
2018-10-05T12:29:45.058Z,20.9
2018-10-05T12:30:35.331Z,20.9
2018-10-05T12:31:25.110Z,21
2018-10-05T12:32:14.748Z,20.9
2018-10-05T12:33:05.345Z,20.9
2018-10-05T12:33:55.608Z,21
2018-10-05T12:34:45.326Z,20.9
2018-10-05T12:35:35.669Z,20.9
2018-10-05T12:36:25.744Z,20.9
2018-10-05T12:37:16.894Z,20.9
2018-10-05T12:38:05.287Z,20.9
2018-10-05T12:38:55.992Z,20.9
2018-10-05T12:39:45.986Z,20.9
2018-10-05T12:40:35.724Z,20.9
2018-10-05T12:41:25.541Z,20.9
2018-10-05T12:42:16.190Z,20.9
2018-10-05T12:43:06.253Z,20.9
2018-10-05T12:43:56.008Z,20.9
2018-10-05T12:44:46.073Z,20.9
2018-10-05T12:45:36.110Z,20.9
2018-10-05T12:46:26.618Z,20.9
2018-10-05T12:47:16.267Z,20.9
2018-10-05T12:48:06.077Z,20.9
2018-10-05T12:48:56.357Z,20.9
2018-10-05T12:49:46.426Z,20.9
2018-10-05T12:50:36.505Z,20.9
2018-10-05T12:51:26.852Z,20.9
2018-10-05T12:52:16.612Z,20.9
2018-10-05T12:53:06.695Z,20.9
2018-10-05T12:53:57.022Z,20.9
2018-10-05T12:54:47.164Z,20.9
2018-10-05T12:55:36.874Z,20.9
2018-10-05T12:56:27.220Z,20.9
2018-10-05T12:57:17.002Z,20.9
2018-10-05T12:58:07.496Z,20.9
2018-10-05T12:58:57.131Z,20.9
2018-10-05T12:59:47.179Z,20.9